Time;durP1;ratioP1;P1;durP2;ratioP2;P2;SDS_P1;SDS_P2;PMS_P1;PMS_P2;Temp;Humidity;BMP_temperature;BMP_pressure;BME280_temperature;BME280_humidity;BME280_pressure;Samples;Min_cycle;Max_cycle;Signal;HPM_P1;HPM_P2
2021/03/03 00:00:22;;;;;;;41.40;28.23;;;3.00;99.90;;;-141.85;100.00;63675.41;5015003;28;20232;-65
2021/03/03 00:02:49;;;;;;;41.77;27.57;;;3.10;99.90;;;-141.85;100.00;63675.41;5014497;28;20330;-65
2021/03/03 00:05:17;;;;;;;41.17;27.13;;;3.10;99.90;;;-141.85;100.00;63675.41;5014928;28;20290;-64
2021/03/03 00:07:44;;;;;;;44.43;29.37;;;3.10;99.90;;;-141.85;100.00;63675.41;5014728;28;20240;-64
2021/03/03 00:10:13;;;;;;;42.93;26.87;;;3.00;99.90;;;-141.85;100.00;63675.41;5014284;28;20777;-64
2021/03/03 00:12:41;;;;;;;45.43;28.30;;;3.00;99.90;;;-141.85;100.00;63675.41;5014500;28;20202;-64
2021/03/03 00:15:10;;;;;;;42.40;27.33;;;2.90;99.90;;;-141.85;100.00;63675.41;5014771;28;20205;-64
2021/03/03 00:17:38;;;;;;;41.23;25.83;;;3.00;99.90;;;-141.85;100.00;63675.41;5014175;28;20288;-64
2021/03/03 00:20:07;;;;;;;40.37;25.43;;;3.00;99.90;;;-141.85;100.00;63675.41;5013921;28;20201;-64
2021/03/03 00:22:34;;;;;;;38.17;25.83;;;3.10;99.90;;;-141.85;100.00;63675.41;5014201;28;20206;-64
2021/03/03 00:25:02;;;;;;;39.07;24.90;;;3.10;99.90;;;-141.85;100.00;63675.41;5014189;28;20724;-65
2021/03/03 00:27:29;;;;;;;37.37;24.77;;;3.10;99.90;;;-141.85;100.00;63675.41;5014851;28;20282;-64
2021/03/03 00:30:15;;;;;;;35.83;23.50;;;3.10;99.90;;;-141.85;100.00;63675.41;5017279;28;20245;-64
2021/03/03 00:32:42;;;;;;;36.40;23.60;;;3.00;99.90;;;-141.85;100.00;63675.41;5015655;28;20442;-64
2021/03/03 00:35:11;;;;;;;35.70;23.97;;;3.10;99.90;;;-141.85;100.00;63675.41;5013928;28;20247;-64
2021/03/03 00:37:38;;;;;;;36.63;24.17;;;3.00;99.90;;;-141.85;100.00;63675.41;5013934;28;20300;-64
2021/03/03 00:40:08;;;;;;;39.87;24.90;;;2.90;99.90;;;-141.85;100.00;63675.41;5014024;28;20200;-65
2021/03/03 00:42:35;;;;;;;38.87;23.93;;;3.00;99.90;;;-141.85;100.00;63675.41;5014087;28;20209;-63
2021/03/03 00:45:04;;;;;;;33.70;23.90;;;3.10;99.90;;;-141.85;100.00;63675.41;5013874;28;20236;-64
2021/03/03 00:47:32;;;;;;;37.57;23.80;;;3.00;99.90;;;-141.85;100.00;63675.41;5013444;28;20244;-63
2021/03/03 00:49:59;;;;;;;33.13;22.87;;;3.00;99.90;;;-141.85;100.00;63675.41;5013536;28;20233;-64
2021/03/03 00:52:26;;;;;;;35.60;23.30;;;3.00;99.90;;;-141.85;100.00;63675.41;5013681;28;20236;-65
2021/03/03 00:54:53;;;;;;;35.73;23.77;;;3.00;99.90;;;-141.85;100.00;63675.41;5013227;28;20730;-64
2021/03/03 00:57:20;;;;;;;37.73;23.47;;;3.10;99.90;;;-141.85;100.00;63675.41;5013329;28;20690;-64
2021/03/03 00:59:47;;;;;;;35.37;23.07;;;3.10;99.90;;;-141.85;100.00;63675.41;5013751;28;20205;-64
2021/03/03 01:02:14;;;;;;;36.47;23.70;;;3.10;99.90;;;-141.85;100.00;63675.41;5013158;28;20296;-65
2021/03/03 01:04:42;;;;;;;37.53;23.70;;;3.00;99.90;;;-141.85;100.00;63675.41;5013312;28;20294;-65
2021/03/03 01:07:09;;;;;;;39.23;23.33;;;2.90;99.90;;;-141.85;100.00;63675.41;5013401;28;20299;-64
2021/03/03 01:09:36;;;;;;;37.60;23.80;;;2.90;99.90;;;-141.85;100.00;63675.41;5013569;28;20695;-64
2021/03/03 01:12:04;;;;;;;38.03;23.77;;;2.80;99.90;;;-141.85;100.00;63675.41;5013567;28;20204;-64
2021/03/03 01:14:31;;;;;;;40.30;24.57;;;2.90;99.90;;;-141.85;100.00;63675.41;5013586;28;20299;-64
2021/03/03 01:16:58;;;;;;;37.67;23.97;;;2.90;99.90;;;-141.85;100.00;63675.41;5012750;28;20295;-64
2021/03/03 01:19:25;;;;;;;39.07;24.33;;;2.80;99.90;;;-141.85;100.00;63675.41;5013554;28;20223;-64
2021/03/03 01:21:53;;;;;;;39.37;25.03;;;2.70;99.90;;;-141.85;100.00;63675.41;5013656;28;20298;-65
2021/03/03 01:24:20;;;;;;;39.33;25.23;;;2.60;99.90;;;-141.85;100.00;63675.41;5013076;28;20644;-65
2021/03/03 01:26:47;;;;;;;40.37;25.00;;;2.60;99.90;;;-141.85;100.00;63675.41;5013108;28;20237;-64
2021/03/03 01:29:14;;;;;;;38.40;23.47;;;2.60;99.90;;;-141.85;100.00;63675.41;5013222;28;20227;-63
2021/03/03 01:31:41;;;;;;;38.30;23.47;;;2.60;99.90;;;-141.85;100.00;63675.41;5011733;28;20303;-64
2021/03/03 01:34:09;;;;;;;35.43;23.60;;;2.60;99.90;;;-141.85;100.00;63675.41;5012728;28;20210;-64
2021/03/03 01:36:36;;;;;;;38.77;24.03;;;2.50;99.90;;;-141.85;100.00;63675.41;5013218;28;20191;-65
2021/03/03 01:39:04;;;;;;;37.17;23.53;;;2.60;99.90;;;-141.85;100.00;63675.41;5012928;28;20434;-64
2021/03/03 01:41:31;;;;;;;38.47;24.70;;;2.60;99.90;;;-141.85;100.00;63675.41;5012905;28;20286;-64
2021/03/03 01:43:58;;;;;;;38.80;23.20;;;2.60;99.90;;;-141.85;100.00;63675.41;5013245;28;20264;-63
2021/03/03 01:46:25;;;;;;;35.37;23.20;;;2.50;99.90;;;-141.85;100.00;63675.41;5012553;28;20295;-64
2021/03/03 01:48:52;;;;;;;33.80;23.50;;;2.50;99.90;;;-141.85;100.00;63675.41;5012992;28;20223;-64
2021/03/03 01:51:20;;;;;;;36.27;23.43;;;2.50;99.90;;;-141.85;100.00;63675.41;5012803;28;20663;-63
2021/03/03 01:53:47;;;;;;;36.77;23.77;;;2.50;99.90;;;-141.85;100.00;63675.41;5012945;28;20282;-65
2021/03/03 01:56:15;;;;;;;40.37;24.03;;;2.40;99.90;;;-141.85;100.00;63675.41;5012419;28;20292;-63
2021/03/03 01:58:42;;;;;;;37.20;23.47;;;2.40;99.90;;;-141.85;100.00;63675.41;5012809;28;20235;-65
2021/03/03 02:01:19;;;;;;;37.77;22.77;;;2.30;99.90;;;-141.85;100.00;63675.41;5012628;28;20188;-63
2021/03/03 02:03:47;;;;;;;36.70;22.53;;;2.30;99.90;;;-141.85;100.00;63675.41;5012476;28;20204;-63
2021/03/03 02:06:25;;;;;;;38.73;24.07;;;2.20;99.90;;;-141.85;100.00;63675.41;5012544;28;20295;-64
2021/03/03 02:09:01;;;;;;;37.60;23.37;;;2.30;99.90;;;-141.85;100.00;63675.41;5012851;28;20296;-65
2021/03/03 02:11:42;;;;;;;34.47;22.87;;;2.50;99.90;;;-141.85;100.00;63675.41;5012624;28;20211;-64
2021/03/03 02:14:15;;;;;;;38.40;24.20;;;2.50;99.90;;;-141.85;100.00;63675.41;5012628;28;20188;-64
2021/03/03 02:16:44;;;;;;;39.90;23.53;;;2.40;99.90;;;-141.85;100.00;63675.41;5012492;28;20212;-64
2021/03/03 02:19:22;;;;;;;41.53;24.93;;;2.30;99.90;;;-141.85;100.00;63675.41;5012447;28;20656;-65
2021/03/03 02:22:02;;;;;;;36.73;23.23;;;2.50;99.90;;;-141.85;100.00;63675.41;5012825;28;20286;-64
2021/03/03 02:24:41;;;;;;;35.57;23.43;;;2.40;99.90;;;-141.85;100.00;63675.41;5012835;28;20188;-63
2021/03/03 02:27:11;;;;;;;35.83;22.57;;;2.50;99.90;;;-141.85;100.00;63675.41;5012513;28;20283;-66
2021/03/03 02:29:38;;;;;;;35.50;22.87;;;2.50;99.90;;;-141.85;100.00;63675.41;5011993;28;20758;-64
2021/03/03 02:32:06;;;;;;;34.03;22.57;;;2.50;99.90;;;-141.85;100.00;63675.41;5012529;28;20267;-65
2021/03/03 02:34:33;;;;;;;39.97;23.30;;;2.40;99.90;;;-141.85;100.00;63675.41;5012399;28;20266;-64
2021/03/03 02:37:01;;;;;;;33.83;23.03;;;2.40;99.90;;;-141.85;100.00;63675.41;5012466;28;20218;-64
2021/03/03 02:39:30;;;;;;;36.80;23.70;;;2.40;99.90;;;-141.85;100.00;63675.41;5012747;28;20288;-64
2021/03/03 02:41:59;;;;;;;34.33;22.97;;;2.20;99.90;;;-141.85;100.00;63675.41;5012606;28;20261;-63
2021/03/03 02:44:28;;;;;;;39.37;24.13;;;2.20;99.90;;;-141.85;100.00;63675.41;5015829;28;20677;-65
2021/03/03 02:46:55;;;;;;;38.50;24.13;;;2.20;99.90;;;-141.85;100.00;63675.41;5016219;28;20211;-63
2021/03/03 02:49:23;;;;;;;38.30;23.97;;;2.20;99.90;;;-141.85;100.00;63675.41;5015999;28;20226;-63
2021/03/03 02:51:50;;;;;;;37.87;24.20;;;2.20;99.90;;;-141.85;100.00;63675.41;5016295;28;20281;-64
2021/03/03 02:54:18;;;;;;;36.67;23.40;;;2.20;99.90;;;-141.85;100.00;63675.41;5016052;28;20562;-65
2021/03/03 02:56:49;;;;;;;38.47;25.03;;;2.20;99.90;;;-141.85;100.00;63675.41;5015783;28;20237;-64
2021/03/03 02:59:27;;;;;;;38.10;24.97;;;2.20;99.90;;;-141.85;100.00;63675.41;5015540;28;20225;-64
2021/03/03 03:02:05;;;;;;;37.27;23.13;;;2.20;99.90;;;-141.85;100.00;63675.41;5016089;28;20274;-65
2021/03/03 03:04:36;;;;;;;37.83;24.10;;;2.10;99.90;;;-141.85;100.00;63675.41;5016007;28;20188;-65
2021/03/03 03:07:08;;;;;;;36.10;23.33;;;2.20;99.90;;;-141.85;100.00;63675.41;5016060;28;20281;-64
2021/03/03 03:09:39;;;;;;;37.77;23.10;;;2.10;99.90;;;-141.85;100.00;63675.41;5015666;28;20242;-64
2021/03/03 03:12:09;;;;;;;36.73;23.77;;;2.10;99.90;;;-141.85;100.00;63675.41;5015677;28;20572;-64
2021/03/03 03:14:37;;;;;;;35.87;22.67;;;2.10;99.90;;;-141.85;100.00;63675.41;5015789;28;20285;-64
2021/03/03 03:17:08;;;;;;;37.67;23.43;;;2.10;99.90;;;-141.85;100.00;63675.41;5015436;28;20586;-65
2021/03/03 03:19:41;;;;;;;39.33;22.97;;;2.20;99.90;;;-141.85;100.00;63675.41;5015349;28;20659;-64
2021/03/03 03:22:11;;;;;;;37.43;22.83;;;2.30;99.90;;;-141.85;100.00;63675.41;5015713;28;20283;-64
2021/03/03 03:24:40;;;;;;;33.77;22.50;;;2.20;99.90;;;-141.85;100.00;63675.41;5015740;28;20306;-64
2021/03/03 03:27:10;;;;;;;35.27;23.70;;;2.20;99.90;;;-141.85;100.00;63675.41;5015570;28;20202;-65
2021/03/03 03:29:40;;;;;;;32.17;21.47;;;2.30;99.90;;;-141.85;100.00;63675.41;5015110;28;20229;-65
2021/03/03 03:32:25;;;;;;;35.37;22.50;;;2.20;99.90;;;-141.85;100.00;63675.41;5015401;28;20183;-58
2021/03/03 03:34:54;;;;;;;33.20;22.50;;;2.20;99.90;;;-141.85;100.00;63675.41;5015274;28;20230;-59
2021/03/03 03:37:24;;;;;;;36.17;23.00;;;2.10;99.90;;;-141.85;100.00;63675.41;5015515;28;20200;-58
2021/03/03 03:39:51;;;;;;;36.20;22.73;;;2.10;99.90;;;-141.85;100.00;63675.41;5015324;28;20288;-56
2021/03/03 03:42:20;;;;;;;37.90;25.37;;;2.00;99.90;;;-141.85;100.00;63675.41;5014959;28;20290;-58
2021/03/03 03:44:48;;;;;;;43.63;27.23;;;1.90;99.90;;;-141.85;100.00;63675.41;5014651;28;20290;-57
2021/03/03 03:47:18;;;;;;;33.50;22.20;;;2.10;99.90;;;-141.85;100.00;63675.41;5014995;28;20205;-57
2021/03/03 03:49:47;;;;;;;32.67;21.37;;;2.30;99.90;;;-141.85;100.00;63675.41;5014916;28;20218;-59
2021/03/03 03:52:16;;;;;;;30.93;21.17;;;2.30;99.90;;;-141.85;100.00;63675.41;5014892;28;20756;-58
2021/03/03 03:54:49;;;;;;;32.97;20.57;;;2.40;99.90;;;-141.85;100.00;63675.41;5013597;28;20767;-57
2021/03/03 03:57:16;;;;;;;33.27;21.57;;;2.40;99.90;;;-141.85;100.00;63675.41;5015091;28;20219;-57
2021/03/03 03:59:43;;;;;;;32.07;20.43;;;2.30;99.90;;;-141.85;100.00;63675.41;5014416;28;20702;-58
2021/03/03 04:02:11;;;;;;;34.23;21.40;;;2.10;99.90;;;-141.85;100.00;63675.41;5015011;28;20284;-59
2021/03/03 04:04:39;;;;;;;31.83;20.33;;;2.10;99.90;;;-141.85;100.00;63675.41;5014973;28;20241;-59
2021/03/03 04:07:07;;;;;;;31.23;19.70;;;2.20;99.90;;;-141.85;100.00;63675.41;5014720;28;20226;-59
2021/03/03 04:09:34;;;;;;;32.13;20.10;;;2.20;99.90;;;-141.85;100.00;63675.41;5014825;28;20313;-58
2021/03/03 04:12:01;;;;;;;29.70;20.87;;;2.20;99.90;;;-141.85;100.00;63675.41;5014733;28;20222;-58
2021/03/03 04:14:29;;;;;;;28.47;19.37;;;2.30;99.90;;;-141.85;100.00;63675.41;5014560;28;20240;-57
2021/03/03 04:16:56;;;;;;;30.47;19.57;;;2.40;99.90;;;-141.85;100.00;63675.41;5014976;28;20293;-58
2021/03/03 04:19:23;;;;;;;30.13;19.30;;;2.40;99.90;;;-141.85;100.00;63675.41;5017205;28;20196;-58
2021/03/03 04:21:50;;;;;;;28.03;19.27;;;2.30;99.90;;;-141.85;100.00;63675.41;5016742;28;20659;-56
2021/03/03 04:24:18;;;;;;;30.27;18.27;;;2.30;99.90;;;-141.85;100.00;63675.41;5015752;28;20232;-64
2021/03/03 04:26:45;;;;;;;31.03;19.23;;;2.30;99.90;;;-141.85;100.00;63675.41;5014759;28;20635;-64
2021/03/03 04:29:12;;;;;;;31.90;19.23;;;2.30;99.90;;;-141.85;100.00;63675.41;5014290;28;20254;-64
2021/03/03 04:31:39;;;;;;;30.13;19.23;;;2.30;99.90;;;-141.85;100.00;63675.41;5014410;28;20250;-65
2021/03/03 04:34:06;;;;;;;28.47;18.43;;;2.30;99.90;;;-141.85;100.00;63675.41;5014159;28;20199;-64
2021/03/03 04:36:33;;;;;;;32.23;19.30;;;2.30;99.90;;;-141.85;100.00;63675.41;5014445;28;20226;-66
2021/03/03 04:39:00;;;;;;;30.40;18.90;;;2.10;99.90;;;-141.85;100.00;63675.41;5014317;28;20258;-64
2021/03/03 04:41:28;;;;;;;37.50;26.23;;;2.00;99.90;;;-141.85;100.00;63675.41;5014069;28;20298;-64
2021/03/03 04:43:55;;;;;;;33.30;23.27;;;1.90;99.90;;;-141.85;100.00;63675.41;5014034;28;20207;-65
2021/03/03 04:46:22;;;;;;;28.60;20.63;;;1.90;99.90;;;-141.85;100.00;63675.41;5013987;28;20615;-65
2021/03/03 04:48:49;;;;;;;30.33;19.80;;;1.80;99.90;;;-141.85;100.00;63675.41;5013605;28;20647;-65
2021/03/03 04:51:16;;;;;;;29.50;19.57;;;1.80;99.90;;;-141.85;100.00;63675.41;5014081;28;20245;-65
2021/03/03 04:53:43;;;;;;;27.57;19.40;;;1.90;99.90;;;-141.85;100.00;63675.41;5014083;28;20236;-64
2021/03/03 04:56:10;;;;;;;31.20;18.87;;;1.80;99.90;;;-141.85;100.00;63675.41;5013716;28;20286;-64
2021/03/03 04:58:38;;;;;;;28.53;17.67;;;1.80;99.90;;;-141.85;100.00;63675.41;5013682;28;20206;-64
2021/03/03 05:01:05;;;;;;;27.87;18.63;;;1.90;99.90;;;-141.85;100.00;63675.41;5013606;28;20576;-65
2021/03/03 05:03:35;;;;;;;34.43;20.17;;;2.00;99.90;;;-141.85;100.00;63675.41;5013219;28;20194;-64
2021/03/03 05:06:06;;;;;;;30.90;18.33;;;2.00;99.90;;;-141.85;100.00;63675.41;5013184;28;20218;-64
2021/03/03 05:08:34;;;;;;;27.10;18.17;;;1.90;99.90;;;-141.85;100.00;63675.41;5013497;28;20241;-65
2021/03/03 05:11:01;;;;;;;29.43;17.67;;;1.80;99.90;;;-141.85;100.00;63675.41;5013447;28;20618;-64
2021/03/03 05:13:29;;;;;;;29.80;17.77;;;1.80;99.90;;;-141.85;100.00;63675.41;5013288;28;20241;-64
2021/03/03 05:15:58;;;;;;;27.87;17.57;;;1.80;99.90;;;-141.85;100.00;63675.41;5013387;28;20198;-64
2021/03/03 05:18:25;;;;;;;26.53;17.23;;;1.90;99.90;;;-141.85;100.00;63675.41;5012847;28;20211;-65
2021/03/03 05:20:52;;;;;;;29.80;17.73;;;1.80;99.90;;;-141.85;100.00;63675.41;5013109;28;20294;-64
2021/03/03 05:23:27;;;;;;;27.90;17.63;;;1.80;99.90;;;-141.85;100.00;63675.41;5013373;28;20207;-65
2021/03/03 05:25:54;;;;;;;28.97;17.50;;;1.70;99.90;;;-141.85;100.00;63675.41;5013104;28;20344;-63
2021/03/03 05:28:22;;;;;;;24.77;16.60;;;1.70;99.90;;;-141.85;100.00;63675.41;5012768;28;20658;-64
2021/03/03 05:30:49;;;;;;;25.77;16.50;;;1.70;99.90;;;-141.85;100.00;63675.41;5012860;28;20668;-64
2021/03/03 05:33:25;;;;;;;27.30;17.17;;;1.60;99.90;;;-141.85;100.00;63675.41;5013082;28;20224;-64
2021/03/03 05:35:54;;;;;;;31.00;18.43;;;1.70;99.90;;;-141.85;100.00;63675.41;5012830;28;20704;-63
2021/03/03 05:38:21;;;;;;;24.90;15.80;;;1.70;99.90;;;-141.85;100.00;63675.41;5013099;28;20654;-64
2021/03/03 05:40:51;;;;;;;24.10;15.87;;;1.70;99.90;;;-141.85;100.00;63675.41;5012739;28;20202;-64
2021/03/03 05:43:18;;;;;;;26.47;17.50;;;1.70;99.90;;;-141.85;100.00;63675.41;5012760;28;20202;-63
2021/03/03 05:45:47;;;;;;;23.97;16.90;;;1.70;99.90;;;-141.85;100.00;63675.41;5013140;28;20231;-63
2021/03/03 05:48:26;;;;;;;24.70;17.03;;;1.60;99.90;;;-141.85;100.00;63675.41;5012546;28;20535;-63
2021/03/03 05:50:58;;;;;;;21.57;14.43;;;1.60;99.90;;;-141.85;100.00;63675.41;5012997;28;20207;-64
2021/03/03 05:53:27;;;;;;;24.87;15.90;;;1.90;99.90;;;-141.85;100.00;63675.41;5012816;28;20190;-65
2021/03/03 05:55:56;;;;;;;22.43;15.10;;;1.90;99.90;;;-141.85;100.00;63675.41;5012424;28;20230;-64
2021/03/03 05:58:26;;;;;;;23.27;14.97;;;1.90;99.90;;;-141.85;100.00;63675.41;5012657;28;20195;-64
2021/03/03 06:00:56;;;;;;;22.40;15.17;;;2.00;99.90;;;-141.85;100.00;63675.41;5012942;28;20187;-64
2021/03/03 06:03:26;;;;;;;24.10;14.10;;;2.00;99.90;;;-141.85;100.00;63675.41;5004714;28;20295;-58
2021/03/03 06:05:54;;;;;;;21.10;14.27;;;1.90;99.90;;;-141.85;100.00;63675.41;5003868;28;20206;-58
2021/03/03 06:08:24;;;;;;;22.87;14.07;;;1.90;99.90;;;-141.85;100.00;63675.41;4993060;28;20227;-58
2021/03/03 06:10:52;;;;;;;19.70;13.80;;;2.00;99.90;;;-141.85;100.00;63675.41;4992521;28;20781;-57
2021/03/03 06:13:20;;;;;;;19.83;13.73;;;2.10;99.90;;;-141.85;100.00;63675.41;4992779;28;20201;-58
2021/03/03 06:15:48;;;;;;;21.20;14.17;;;2.20;99.90;;;-141.85;100.00;63675.41;4993040;28;20351;-58
2021/03/03 06:18:18;;;;;;;22.87;13.87;;;2.20;99.90;;;-141.85;100.00;63675.41;5010150;28;20293;-58
2021/03/03 06:20:48;;;;;;;21.73;13.93;;;2.10;99.90;;;-141.85;100.00;63675.41;5016699;28;20191;-59
2021/03/03 06:23:19;;;;;;;21.80;13.83;;;2.10;99.90;;;-141.85;100.00;63675.41;5016278;28;20295;-58
2021/03/03 06:25:49;;;;;;;21.87;13.93;;;2.10;99.90;;;-141.85;100.00;63675.41;5016458;28;20191;-56
2021/03/03 06:28:33;;;;;;;26.20;19.37;;;2.20;99.90;;;-141.85;100.00;63675.41;5016299;28;20285;-58
2021/03/03 06:31:02;;;;;;;22.57;14.10;;;2.10;99.90;;;-141.85;100.00;63675.41;5015992;28;20288;-57
2021/03/03 06:33:29;;;;;;;21.87;14.00;;;2.20;99.90;;;-141.85;100.00;63675.41;5016075;28;20201;-58
2021/03/03 06:35:56;;;;;;;21.10;13.83;;;2.30;99.90;;;-141.85;100.00;63675.41;5015960;28;20293;-59
2021/03/03 06:38:29;;;;;;;18.07;13.07;;;2.40;99.90;;;-141.85;100.00;63675.41;5013448;28;20207;-57
2021/03/03 06:41:00;;;;;;;19.00;13.20;;;2.50;99.90;;;-141.85;100.00;63675.41;5005171;28;20658;-58
2021/03/03 06:43:30;;;;;;;19.17;13.30;;;2.40;99.90;;;-141.85;100.00;63675.41;5002545;28;20671;-58
2021/03/03 06:46:15;;;;;;;20.77;13.27;;;2.60;99.90;;;-141.85;100.00;63675.41;4996078;28;20303;-56
2021/03/03 06:48:44;;;;;;;18.57;12.30;;;2.80;99.90;;;-141.85;100.00;63675.41;5005695;28;20205;-58
2021/03/03 06:51:24;;;;;;;18.40;11.93;;;2.90;99.90;;;-141.85;100.00;63675.41;5015603;28;20237;-59
2021/03/03 06:53:54;;;;;;;20.40;12.37;;;2.90;99.90;;;-141.85;100.00;63675.41;5015516;28;20191;-58
2021/03/03 06:56:36;;;;;;;20.73;12.03;;;3.00;99.90;;;-141.85;100.00;63675.41;5019240;28;20290;-57
2021/03/03 06:59:17;;;;;;;19.63;12.20;;;3.10;99.90;;;-141.85;100.00;63675.41;5004757;28;20207;-59
2021/03/03 07:01:46;;;;;;;19.27;12.37;;;3.20;99.90;;;-141.85;100.00;63675.41;4996509;28;20269;-58
2021/03/03 07:04:30;;;;;;;18.00;12.30;;;3.30;99.90;;;-141.85;100.00;63675.41;5006813;28;20286;-58
2021/03/03 07:06:59;;;;;;;16.70;11.10;;;3.40;99.90;;;-141.85;100.00;63675.41;4996080;28;20648;-58
2021/03/03 07:09:38;;;;;;;15.27;11.63;;;3.40;99.90;;;-141.85;100.00;63675.41;4996087;28;20391;-58
2021/03/03 07:12:09;;;;;;;21.53;11.97;;;3.40;99.90;;;-141.85;100.00;63675.41;4995902;28;20278;-60
2021/03/03 07:14:40;;;;;;;18.20;11.03;;;3.50;99.90;;;-141.85;100.00;63675.41;4996083;28;20271;-58
2021/03/03 07:17:11;;;;;;;17.07;11.43;;;3.60;99.90;;;-141.85;100.00;63675.41;5001916;28;20203;-58
2021/03/03 07:19:42;;;;;;;17.70;10.97;;;3.70;99.90;;;-141.85;100.00;63675.41;5013187;28;20293;-58
2021/03/03 07:22:25;;;;;;;18.50;11.37;;;3.80;99.90;;;-141.85;100.00;63675.41;5009047;28;20281;-58
2021/03/03 07:24:56;;;;;;;19.17;11.20;;;3.90;99.90;;;-141.85;100.00;63675.41;5000576;28;20226;-60
2021/03/03 07:27:23;;;;;;;18.90;11.10;;;4.00;99.90;;;-141.85;100.00;63675.41;5004703;28;20300;-58
2021/03/03 07:29:53;;;;;;;16.67;11.17;;;4.10;99.90;;;-141.85;100.00;63675.41;5004261;28;20235;-59
2021/03/03 07:32:21;;;;;;;17.90;11.00;;;4.20;99.90;;;-141.85;100.00;63675.41;5002080;28;20209;-57
2021/03/03 07:34:51;;;;;;;17.60;11.57;;;4.30;99.90;;;-141.85;100.00;63675.41;5009511;28;20570;-57
2021/03/03 07:37:21;;;;;;;14.90;10.57;;;4.40;99.90;;;-141.85;100.00;63675.41;5013308;28;20214;-58
2021/03/03 07:39:56;;;;;;;17.17;10.93;;;4.60;99.90;;;-141.85;100.00;63675.41;5001326;28;20277;-58
2021/03/03 07:42:28;;;;;;;18.87;11.30;;;4.70;99.90;;;-141.85;100.00;63675.41;5000105;28;20277;-58
2021/03/03 07:44:58;;;;;;;16.57;10.20;;;4.90;99.90;;;-141.85;100.00;63675.41;5009254;28;20304;-58
2021/03/03 07:47:29;;;;;;;16.57;9.97;;;4.90;99.90;;;-141.85;100.00;63675.41;5014765;28;20199;-58
2021/03/03 07:50:01;;;;;;;16.23;10.43;;;5.00;99.90;;;-141.85;100.00;63675.41;5011287;28;20707;-57
2021/03/03 07:52:29;;;;;;;16.90;10.37;;;5.00;99.90;;;-141.85;100.00;63675.41;5010788;28;20240;-58
2021/03/03 07:55:01;;;;;;;17.97;11.40;;;5.10;99.90;;;-141.85;100.00;63675.41;5011584;28;20712;-57
2021/03/03 07:57:29;;;;;;;17.53;11.07;;;5.20;99.90;;;-141.85;100.00;63675.41;5011036;28;20282;-57
2021/03/03 07:59:57;;;;;;;16.17;10.53;;;5.30;99.90;;;-141.85;100.00;63675.41;5012018;28;20268;-58
2021/03/03 08:02:43;;;;;;;15.97;11.07;;;5.30;99.90;;;-141.85;100.00;63675.41;5011566;28;20246;-56
2021/03/03 08:05:26;;;;;;;16.23;10.33;;;5.50;99.90;;;-141.85;100.00;63675.41;5010707;28;20203;-55
2021/03/03 08:08:25;;;;;;;17.80;10.80;;;5.60;99.90;;;-141.85;100.00;63675.41;5008671;28;20203;-57
2021/03/03 08:11:28;;;;;;;17.30;11.43;;;5.70;99.90;;;-141.85;100.00;63675.41;4986923;28;20314;-57
2021/03/03 08:13:55;;;;;;;19.73;11.30;;;5.80;99.90;;;-141.85;100.00;63675.41;4991736;28;20215;-57
2021/03/03 08:16:22;;;;;;;20.87;11.20;;;5.90;99.90;;;-141.85;100.00;63675.41;4991292;28;20691;-56
2021/03/03 08:18:54;;;;;;;17.40;10.83;;;6.00;99.90;;;-141.85;100.00;63675.41;4991676;28;20286;-57
2021/03/03 08:21:28;;;;;;;17.37;10.40;;;6.10;99.90;;;-141.85;100.00;63675.41;4991562;28;20208;-56
2021/03/03 08:23:56;;;;;;;18.23;10.77;;;6.30;99.90;;;-141.85;100.00;63675.41;4993513;28;20188;-58
2021/03/03 08:26:36;;;;;;;15.70;10.67;;;6.40;99.90;;;-141.85;100.00;63675.41;4994396;28;20261;-57
2021/03/03 08:29:29;;;;;;;17.23;11.10;;;6.60;99.90;;;-141.85;100.00;63675.41;4993529;28;20242;-56
2021/03/03 08:32:24;;;;;;;16.97;11.57;;;6.70;99.90;;;-141.85;100.00;63675.41;4991140;28;20555;-57
2021/03/03 08:34:53;;;;;;;17.27;10.53;;;6.90;99.90;;;-141.85;100.00;63675.41;4990604;28;20231;-57
2021/03/03 08:37:31;;;;;;;15.63;10.27;;;7.00;99.90;;;-141.85;100.00;63675.41;5009414;28;20199;-54
2021/03/03 08:39:59;;;;;;;14.87;10.17;;;7.10;99.90;;;-141.85;100.00;63675.41;4997665;28;20203;-56
2021/03/03 08:42:40;;;;;;;14.60;10.43;;;7.10;99.90;;;-141.85;100.00;63675.41;5010072;28;20253;-54
2021/03/03 08:45:13;;;;;;;15.20;10.33;;;7.20;99.90;;;-141.85;100.00;63675.41;5010462;28;20187;-57
2021/03/03 08:48:01;;;;;;;15.13;9.67;;;7.40;99.90;;;-141.85;100.00;63675.41;5010534;28;20207;-57
2021/03/03 08:50:42;;;;;;;14.00;8.93;;;7.50;99.90;;;-141.85;100.00;63675.41;5010447;28;20249;-58
2021/03/03 08:53:32;;;;;;;15.97;9.67;;;7.60;99.90;;;-141.85;100.00;63675.41;5010641;28;20191;-59
2021/03/03 08:56:35;;;;;;;14.43;9.60;;;7.80;99.90;;;-141.85;100.00;63675.41;5009855;28;20224;-51
2021/03/03 08:59:04;;;;;;;18.37;10.53;;;7.90;99.90;;;-141.85;100.00;63675.41;5010286;28;20292;-53
2021/03/03 09:01:58;;;;;;;14.03;9.50;;;8.00;99.90;;;-141.85;100.00;63675.41;5010332;28;20203;-55
2021/03/03 09:04:28;;;;;;;16.33;9.53;;;8.20;99.90;;;-141.85;100.00;63675.41;5009084;28;20745;-58
2021/03/03 09:06:58;;;;;;;12.77;9.10;;;8.20;99.90;;;-141.85;100.00;63675.41;5008867;28;20738;-55
2021/03/03 09:09:27;;;;;;;13.60;9.00;;;8.40;99.90;;;-141.85;100.00;63675.41;5010229;28;20294;-56
2021/03/03 09:12:04;;;;;;;16.33;9.47;;;8.40;99.90;;;-141.85;100.00;63675.41;5009594;28;20265;-68
2021/03/03 09:14:32;;;;;;;12.70;9.20;;;8.50;99.90;;;-141.85;100.00;63675.41;5010546;28;20252;-59
2021/03/03 09:17:02;;;;;;;15.63;9.53;;;8.60;99.90;;;-141.85;100.00;63675.41;5009958;28;20608;-65
2021/03/03 09:19:32;;;;;;;13.73;9.80;;;8.60;99.90;;;-141.85;100.00;63675.41;5009665;28;20214;-64
2021/03/03 09:22:00;;;;;;;14.93;9.80;;;8.70;99.90;;;-141.85;100.00;63675.41;5009777;28;20202;-64
2021/03/03 09:24:30;;;;;;;14.03;9.80;;;8.80;99.90;;;-141.85;100.00;63675.41;5009624;28;20233;-64
2021/03/03 09:27:08;;;;;;;17.40;9.70;;;8.90;99.90;;;-141.85;100.00;63675.41;5009464;28;20199;-65
2021/03/03 09:29:39;;;;;;;13.83;9.67;;;9.00;99.90;;;-141.85;100.00;63675.41;5009896;28;20229;-64
2021/03/03 09:32:10;;;;;;;14.23;9.77;;;9.10;99.90;;;-141.85;100.00;63675.41;5010105;28;20191;-63
2021/03/03 09:34:47;;;;;;;15.07;9.60;;;9.20;99.90;;;-141.85;100.00;63675.41;5009397;28;20234;-62
2021/03/03 09:37:16;;;;;;;12.57;9.40;;;9.30;99.90;;;-141.85;100.00;63675.41;5010277;28;20206;-63
2021/03/03 09:39:51;;;;;;;13.97;9.47;;;9.20;99.90;;;-141.85;100.00;63675.41;5009840;28;20210;-63
2021/03/03 09:42:18;;;;;;;15.70;9.70;;;9.30;99.90;;;-141.85;100.00;63675.41;5009448;28;20186;-64
2021/03/03 09:44:52;;;;;;;14.57;10.60;;;9.40;99.90;;;-141.85;100.00;63675.41;5008921;28;20202;-63
2021/03/03 09:47:26;;;;;;;13.20;9.27;;;9.40;99.90;;;-141.85;100.00;63675.41;5007876;28;20199;-62
2021/03/03 09:50:01;;;;;;;13.63;10.13;;;9.50;99.90;;;-141.85;100.00;63675.41;5008608;28;20312;-64
2021/03/03 09:52:35;;;;;;;12.73;9.73;;;9.50;99.90;;;-141.85;100.00;63675.41;5008398;28;20261;-65
2021/03/03 09:55:05;;;;;;;13.90;9.73;;;9.70;99.90;;;-141.85;100.00;63675.41;5009048;28;20191;-64
2021/03/03 09:57:33;;;;;;;14.47;10.37;;;9.70;99.90;;;-141.85;100.00;63675.41;5009350;28;20199;-64
2021/03/03 10:00:01;;;;;;;14.53;9.67;;;9.80;99.90;;;-141.85;100.00;63675.41;5009447;28;20245;-64
2021/03/03 10:02:30;;;;;;;16.93;10.60;;;;;;;-141.85;100.00;63675.41;5009549;28;20202;-63
2021/03/03 10:04:59;;;;;;;13.77;9.87;;;10.20;99.90;;;-141.85;100.00;63675.41;5009420;28;20206;-64
2021/03/03 10:07:28;;;;;;;16.23;11.00;;;10.40;99.90;;;-141.85;100.00;63675.41;5009362;28;20199;-60
2021/03/03 10:09:58;;;;;;;15.13;10.87;;;10.50;99.90;;;-141.85;100.00;63675.41;5009224;28;20385;-60